Time;durP1;ratioP1;P1;durP2;ratioP2;P2;SDS_P1;SDS_P2;PMS_P1;PMS_P2;Temp;Humidity;BMP_temperature;BMP_pressure;BME280_temperature;BME280_humidity;BME280_pressure;Samples;Min_cycle;Max_cycle;Signal;HPM_P1;HPM_P2
2022/04/06 00:01:37;;;;;;;19.10;14.32;;;9.00;99.90;;;;;;5033310;28;20209;-60
2022/04/06 00:04:04;;;;;;;15.90;12.80;;;9.00;99.90;;;;;;5033285;28;20212;-60
2022/04/06 00:06:31;;;;;;;18.67;13.25;;;9.00;99.90;;;;;;5033118;28;20230;-61
2022/04/06 00:08:58;;;;;;;15.60;12.85;;;9.10;99.90;;;;;;5033304;28;20216;-60
2022/04/06 00:11:25;;;;;;;17.83;12.63;;;9.10;99.90;;;;;;5033232;28;20205;-60
2022/04/06 00:13:52;;;;;;;14.65;12.45;;;9.10;99.90;;;;;;5033249;28;20232;-59
2022/04/06 00:16:20;;;;;;;13.60;12.18;;;9.10;99.90;;;;;;5033379;28;20222;-60
2022/04/06 00:18:48;;;;;;;13.65;11.25;;;9.10;99.90;;;;;;5033182;28;20215;-60
2022/04/06 00:21:15;;;;;;;16.45;11.98;;;9.10;99.90;;;;;;5032855;28;20202;-58
2022/04/06 00:23:42;;;;;;;14.82;11.52;;;9.10;99.90;;;;;;5033031;28;20208;-60
2022/04/06 00:26:09;;;;;;;12.77;10.63;;;9.10;99.90;;;;;;5036260;28;20230;-59
2022/04/06 00:28:37;;;;;;;11.70;10.00;;;9.10;99.90;;;;;;5039551;28;20207;-60
2022/04/06 00:31:04;;;;;;;13.50;9.68;;;9.10;99.90;;;;;;5044094;28;20199;-60
2022/04/06 00:33:31;;;;;;;13.50;9.38;;;9.10;99.90;;;;;;5041933;28;20208;-60
2022/04/06 00:35:59;;;;;;;13.10;10.07;;;9.10;99.90;;;;;;5040875;28;20233;-59
2022/04/06 00:38:26;;;;;;;12.02;8.32;;;9.00;99.90;;;;;;5044531;28;20239;-60
2022/04/06 00:40:53;;;;;;;12.07;8.98;;;9.00;99.90;;;;;;5039234;28;20208;-59
2022/04/06 00:43:21;;;;;;;10.07;9.07;;;9.00;99.90;;;;;;5037104;28;20213;-60
2022/04/06 00:45:48;;;;;;;13.20;9.18;;;9.00;99.90;;;;;;5036578;28;20709;-60
2022/04/06 00:48:15;;;;;;;10.90;8.68;;;9.00;99.90;;;;;;5036579;28;20206;-59
2022/04/06 00:50:43;;;;;;;11.57;8.48;;;9.00;99.90;;;;;;5036683;28;20208;-59
2022/04/06 00:53:14;;;;;;;11.27;8.35;;;9.00;99.90;;;;;;5036629;28;20204;-60
2022/04/06 00:55:41;;;;;;;10.32;8.90;;;9.00;99.90;;;;;;5036753;28;20228;-60
2022/04/06 00:58:08;;;;;;;15.10;8.50;;;9.00;99.90;;;;;;5036404;28;20220;-61
2022/04/06 01:00:35;;;;;;;13.05;7.90;;;9.00;99.90;;;;;;5036323;28;20222;-60
2022/04/06 01:03:03;;;;;;;14.65;8.13;;;8.90;99.90;;;;;;5036309;28;20206;-60
2022/04/06 01:05:31;;;;;;;14.10;8.70;;;8.90;99.90;;;;;;5036591;28;20217;-60
2022/04/06 01:08:00;;;;;;;13.43;8.75;;;9.00;99.90;;;;;;5036148;28;20209;-59
2022/04/06 01:10:28;;;;;;;10.60;8.80;;;9.00;99.90;;;;;;5036402;28;20299;-60
2022/04/06 01:12:56;;;;;;;12.35;9.02;;;9.00;99.90;;;;;;5036014;28;20203;-60
2022/04/06 01:15:24;;;;;;;13.32;10.18;;;9.00;99.90;;;;;;5036122;28;20260;-60
2022/04/06 01:17:51;;;;;;;10.45;8.75;;;9.00;99.90;;;;;;5036229;28;20209;-60
2022/04/06 01:20:18;;;;;;;15.57;10.15;;;9.10;99.90;;;;;;5035872;28;20214;-60
2022/04/06 01:22:47;;;;;;;11.52;10.27;;;9.10;99.90;;;;;;5036320;28;20208;-61
2022/04/06 01:25:14;;;;;;;13.65;11.05;;;9.10;99.90;;;;;;5035766;28;20702;-60
2022/04/06 01:27:41;;;;;;;12.82;10.40;;;9.10;99.90;;;;;;5035750;28;20206;-60
2022/04/06 01:30:09;;;;;;;13.07;10.40;;;9.10;99.90;;;;;;5036128;28;20220;-60
2022/04/06 01:32:36;;;;;;;12.68;11.27;;;9.10;99.90;;;;;;5035913;28;20203;-60
2022/04/06 01:35:05;;;;;;;13.88;12.00;;;9.10;99.90;;;;;;5035833;28;20316;-60
2022/04/06 01:37:34;;;;;;;16.60;12.45;;;9.20;99.90;;;;;;5034977;28;20208;-60
2022/04/06 01:40:04;;;;;;;22.25;14.35;;;9.20;99.90;;;;;;5035874;28;20570;-60
2022/04/06 01:42:32;;;;;;;23.63;15.55;;;9.20;99.90;;;;;;5035551;28;20220;-60
2022/04/06 01:44:59;;;;;;;18.83;14.20;;;9.20;99.90;;;;;;5035619;28;20227;-60
2022/04/06 01:47:26;;;;;;;20.45;15.98;;;9.30;99.90;;;;;;5035456;28;20234;-60
2022/04/06 01:52:38;;;;;;;23.13;16.65;;;9.30;99.90;;;;;;5035784;28;20192;-60
2022/04/06 01:55:09;;;;;;;21.63;16.42;;;9.40;99.90;;;;;;5035322;28;20233;-58
2022/04/06 01:57:37;;;;;;;22.10;16.60;;;9.40;99.90;;;;;;5035643;28;20189;-59
2022/04/06 02:00:09;;;;;;;20.70;15.88;;;9.40;99.90;;;;;;5035223;28;20205;-60
2022/04/06 02:02:36;;;;;;;23.33;17.42;;;9.50;99.90;;;;;;5035129;28;20194;-60
2022/04/06 02:05:04;;;;;;;27.02;17.48;;;9.50;99.90;;;;;;5035142;28;20221;-60
2022/04/06 02:07:31;;;;;;;22.35;17.02;;;9.50;99.90;;;;;;5035111;28;20592;-60
2022/04/06 02:10:00;;;;;;;19.60;16.45;;;9.50;99.90;;;;;;5034910;28;20670;-60
2022/04/06 02:12:29;;;;;;;28.35;18.77;;;9.50;99.90;;;;;;5035195;28;20226;-60
2022/04/06 02:14:57;;;;;;;23.85;17.80;;;9.50;99.90;;;;;;5035049;28;20284;-60
2022/04/06 02:17:27;;;;;;;25.17;18.75;;;9.50;99.90;;;;;;5035026;28;20203;-60
2022/04/06 02:19:54;;;;;;;23.02;18.67;;;9.50;99.90;;;;;;5034797;28;20207;-60
2022/04/06 02:22:21;;;;;;;25.88;19.10;;;9.60;99.90;;;;;;5034697;28;20199;-59
2022/04/06 02:24:48;;;;;;;20.10;16.70;;;9.60;99.90;;;;;;5035774;28;20220;-59
2022/04/06 02:27:15;;;;;;;23.63;16.42;;;9.50;99.90;;;;;;5034944;28;20200;-60
2022/04/06 02:29:44;;;;;;;26.85;18.33;;;9.50;99.90;;;;;;5034742;28;20694;-61
2022/04/06 02:32:11;;;;;;;23.10;18.30;;;9.50;99.90;;;;;;5034951;28;20204;-59
2022/04/06 02:34:40;;;;;;;22.60;18.65;;;9.50;99.90;;;;;;5034309;28;20240;-60
2022/04/06 02:37:08;;;;;;;26.35;18.77;;;9.50;99.90;;;;;;5034584;28;20206;-61
2022/04/06 02:39:35;;;;;;;26.20;18.13;;;9.60;99.90;;;;;;5035014;28;20689;-59
2022/04/06 02:42:03;;;;;;;25.98;19.55;;;9.60;99.90;;;;;;5034990;28;20208;-59
2022/04/06 02:44:30;;;;;;;27.80;17.95;;;9.50;99.90;;;;;;5034508;28;20665;-60
2022/04/06 02:46:59;;;;;;;24.13;20.67;;;9.50;99.90;;;;;;5034562;28;20199;-60
2022/04/06 02:49:26;;;;;;;23.98;18.55;;;9.50;99.90;;;;;;5033561;28;20290;-59
2022/04/06 02:51:53;;;;;;;27.25;20.80;;;9.50;99.90;;;;;;5034551;28;20215;-60
2022/04/06 02:54:20;;;;;;;29.90;20.75;;;9.50;99.90;;;;;;5034204;28;20204;-59
2022/04/06 02:56:48;;;;;;;25.52;21.10;;;9.50;99.90;;;;;;5034446;28;20208;-59
2022/04/06 02:59:15;;;;;;;28.25;21.17;;;9.50;99.90;;;;;;5034265;28;20249;-60
2022/04/06 03:01:42;;;;;;;25.05;19.67;;;9.50;99.90;;;;;;5034113;28;20670;-59
2022/04/06 03:04:11;;;;;;;27.85;19.95;;;9.50;99.90;;;;;;5034217;28;20214;-60
2022/04/06 03:06:39;;;;;;;31.30;21.65;;;9.50;99.90;;;;;;5034193;28;20304;-60
2022/04/06 03:09:06;;;;;;;33.10;22.30;;;9.50;99.90;;;;;;5034209;28;20233;-60
2022/04/06 03:11:33;;;;;;;35.80;22.20;;;9.50;99.90;;;;;;5034076;28;20224;-60
2022/04/06 03:14:00;;;;;;;28.70;22.23;;;9.50;99.90;;;;;;5034066;28;20209;-60
2022/04/06 03:16:27;;;;;;;25.48;19.63;;;9.50;99.90;;;;;;5033658;28;20221;-60
2022/04/06 03:18:54;;;;;;;27.38;21.10;;;9.60;99.90;;;;;;5034025;28;20262;-61
2022/04/06 03:21:22;;;;;;;30.25;21.52;;;9.50;99.90;;;;;;5033956;28;20585;-60
2022/04/06 03:23:49;;;;;;;28.52;20.38;;;9.60;99.90;;;;;;5033908;28;20213;-59
2022/04/06 03:26:17;;;;;;;27.98;21.27;;;9.60;99.90;;;;;;5033645;28;20219;-60
2022/04/06 03:28:44;;;;;;;27.85;21.33;;;9.60;99.90;;;;;;5033535;28;20671;-61
2022/04/06 03:31:11;;;;;;;25.42;19.90;;;9.60;99.90;;;;;;5033736;28;20212;-60
2022/04/06 03:33:38;;;;;;;30.10;19.70;;;9.60;99.90;;;;;;5033477;28;20205;-60
2022/04/06 03:36:05;;;;;;;23.67;19.38;;;9.60;99.90;;;;;;5057366;22;20257;-55
2022/04/06 03:38:34;;;;;;;27.45;20.25;;;9.60;99.90;;;;;;5033692;28;20211;-55
2022/04/06 03:41:01;;;;;;;21.25;18.95;;;9.60;99.90;;;;;;5033205;28;20714;-55
2022/04/06 03:43:29;;;;;;;28.83;19.70;;;9.70;99.90;;;;;;5033599;28;20199;-54
2022/04/06 03:45:56;;;;;;;30.92;20.20;;;9.60;99.90;;;;;;5033261;28;20260;-54
2022/04/06 03:48:23;;;;;;;29.05;20.60;;;9.70;99.90;;;;;;5033339;28;20704;-54
2022/04/06 03:50:50;;;;;;;27.77;21.33;;;9.60;99.90;;;;;;5033426;28;20576;-54
2022/04/06 03:53:18;;;;;;;29.50;21.35;;;9.60;99.90;;;;;;5033168;28;20681;-54
2022/04/06 03:55:47;;;;;;;27.15;20.50;;;9.60;99.90;;;;;;5032832;28;20229;-54
2022/04/06 03:58:14;;;;;;;24.95;20.95;;;9.70;99.90;;;;;;5032910;28;20201;-53
2022/04/06 04:00:41;;;;;;;33.03;22.55;;;9.60;99.90;;;;;;5032821;28;20211;-53
2022/04/06 04:03:08;;;;;;;27.42;21.63;;;9.70;99.90;;;;;;5032919;28;20669;-54
2022/04/06 04:05:36;;;;;;;31.85;21.20;;;9.60;99.90;;;;;;5032695;28;20623;-52
2022/04/06 04:09:37;;;;;;;35.53;23.40;;;9.70;99.90;;;;;;5091316;27;20628;-53
2022/04/06 04:12:05;;;;;;;30.13;22.65;;;9.70;99.90;;;;;;5090724;28;20564;-54
2022/04/06 04:14:34;;;;;;;30.98;22.80;;;9.60;99.90;;;;;;5090533;28;20197;-55
2022/04/06 04:17:01;;;;;;;27.13;21.20;;;9.70;99.90;;;;;;5069984;28;20202;-53
2022/04/06 04:19:28;;;;;;;28.45;22.55;;;9.70;99.90;;;;;;5069976;28;20237;-53
2022/04/06 04:21:55;;;;;;;30.65;22.55;;;9.70;99.90;;;;;;5070032;28;20208;-54
2022/04/06 04:24:23;;;;;;;28.40;22.40;;;9.70;99.90;;;;;;5070200;28;20210;-53
2022/04/06 04:26:51;;;;;;;30.45;23.88;;;9.70;99.90;;;;;;5069684;28;20936;-53
2022/04/06 04:29:18;;;;;;;30.45;22.85;;;9.60;99.90;;;;;;5070195;28;20293;-53
2022/04/06 04:31:46;;;;;;;28.98;22.20;;;9.70;99.90;;;;;;5070124;28;20638;-54
2022/04/06 04:34:13;;;;;;;34.83;24.30;;;9.70;99.90;;;;;;5070542;28;20212;-54
2022/04/06 04:36:40;;;;;;;27.15;22.10;;;9.70;99.90;;;;;;5069716;28;20232;-54
2022/04/06 04:39:07;;;;;;;28.98;22.05;;;9.70;99.90;;;;;;5069663;28;20200;-54
2022/04/06 04:41:34;;;;;;;30.33;22.95;;;9.70;99.90;;;;;;5070156;28;20641;-53
2022/04/06 04:44:03;;;;;;;37.55;24.90;;;9.60;99.90;;;;;;5069661;28;20212;-53
2022/04/06 04:46:30;;;;;;;25.98;23.20;;;9.60;99.90;;;;;;5069877;28;20224;-54
2022/04/06 04:48:58;;;;;;;29.02;23.00;;;9.70;99.90;;;;;;5069770;28;20600;-54
2022/04/06 04:51:25;;;;;;;31.63;25.60;;;9.70;99.90;;;;;;5069943;28;20201;-54
2022/04/06 04:53:52;;;;;;;32.33;25.75;;;9.70;99.90;;;;;;5069364;28;20570;-54
2022/04/06 04:56:19;;;;;;;33.03;23.55;;;9.70;99.90;;;;;;5069679;28;20224;-54
2022/04/06 04:58:46;;;;;;;26.13;22.70;;;9.70;99.90;;;;;;5069370;28;20661;-54
2022/04/06 05:01:15;;;;;;;24.85;21.65;;;9.70;99.90;;;;;;5069661;28;20205;-54
2022/04/06 05:03:42;;;;;;;29.63;22.80;;;9.70;99.90;;;;;;5069303;28;20204;-55
2022/04/06 05:06:09;;;;;;;33.25;23.50;;;9.70;99.90;;;;;;5069152;28;20219;-55
2022/04/06 05:08:37;;;;;;;33.10;22.45;;;9.80;99.90;;;;;;5069049;28;20602;-55
2022/04/06 05:11:04;;;;;;;28.02;22.63;;;9.80;99.90;;;;;;5069037;28;20250;-55
2022/04/06 05:13:31;;;;;;;30.40;21.73;;;9.80;99.90;;;;;;5069082;28;20289;-55
2022/04/06 05:15:59;;;;;;;32.85;24.52;;;9.80;99.90;;;;;;5069215;28;20218;-54
2022/04/06 05:18:29;;;;;;;28.20;21.63;;;9.80;99.90;;;;;;5068807;28;20324;-54
2022/04/06 05:20:56;;;;;;;31.25;23.42;;;9.80;99.90;;;;;;5055668;28;20189;-54
2022/04/06 05:23:24;;;;;;;30.60;23.83;;;9.80;99.90;;;;;;5055653;28;20206;-54
2022/04/06 05:25:51;;;;;;;34.20;23.17;;;9.80;99.90;;;;;;5055942;28;20663;-53
2022/04/06 05:28:18;;;;;;;28.70;23.65;;;9.80;99.90;;;;;;5055967;28;20228;-53
2022/04/06 05:30:46;;;;;;;29.00;23.25;;;9.80;99.90;;;;;;5055821;28;20612;-53
2022/04/06 05:33:13;;;;;;;33.97;24.90;;;9.80;99.90;;;;;;5055829;28;20226;-54
2022/04/06 05:35:42;;;;;;;33.55;25.95;;;9.70;99.90;;;;;;5055664;28;20254;-52
2022/04/06 05:38:09;;;;;;;33.60;26.15;;;9.60;99.90;;;;;;5055868;28;20321;-53
2022/04/06 05:40:37;;;;;;;34.05;26.55;;;9.50;99.90;;;;;;5055292;28;20290;-52
2022/04/06 05:43:04;;;;;;;31.83;26.33;;;9.40;99.90;;;;;;5055658;28;20633;-53
2022/04/06 05:45:32;;;;;;;33.15;26.48;;;9.40;99.90;;;;;;5055066;28;20746;-54
2022/04/06 05:47:59;;;;;;;33.53;25.52;;;9.30;99.90;;;;;;5053791;28;20214;-55
2022/04/06 05:50:26;;;;;;;36.60;27.77;;;9.30;99.90;;;;;;5054222;28;20211;-54
2022/04/06 05:52:55;;;;;;;40.90;28.92;;;9.20;99.90;;;;;;5053829;28;20197;-54
2022/04/06 05:55:22;;;;;;;40.38;26.10;;;9.20;99.90;;;;;;5054178;28;20292;-54
2022/04/06 05:57:49;;;;;;;37.13;26.80;;;9.10;99.90;;;;;;5053969;28;20199;-57
2022/04/06 06:00:17;;;;;;;37.38;26.70;;;9.10;99.90;;;;;;5034742;28;20205;-54
2022/04/06 06:02:45;;;;;;;37.17;26.88;;;9.10;99.90;;;;;;5036467;28;20203;-54
2022/04/06 06:05:12;;;;;;;37.47;24.42;;;9.00;99.90;;;;;;5055127;28;20311;-53
2022/04/06 06:07:39;;;;;;;35.65;24.40;;;9.00;99.90;;;;;;5053395;28;20221;-55
2022/04/06 06:10:09;;;;;;;34.47;24.13;;;8.90;99.90;;;;;;5054039;28;20235;-55
2022/04/06 06:12:36;;;;;;;30.17;22.60;;;8.90;99.90;;;;;;5054517;28;20205;-56
2022/04/06 06:15:06;;;;;;;37.85;24.77;;;8.90;99.90;;;;;;5053816;28;20257;-57
2022/04/06 06:17:36;;;;;;;32.97;25.10;;;8.90;99.90;;;;;;5054673;28;20579;-55
2022/04/06 06:20:04;;;;;;;33.60;23.80;;;9.00;99.90;;;;;;5054527;28;20193;-54
2022/04/06 06:22:31;;;;;;;28.73;22.52;;;9.00;99.90;;;;;;5055023;28;20674;-55
2022/04/06 06:24:58;;;;;;;25.92;22.05;;;9.00;99.90;;;;;;5055531;28;20544;-55
2022/04/06 06:27:27;;;;;;;31.52;21.20;;;9.00;99.90;;;;;;5054157;28;20300;-55
2022/04/06 06:29:54;;;;;;;30.10;21.50;;;9.10;99.90;;;;;;5055564;28;20225;-55
2022/04/06 06:32:21;;;;;;;30.35;21.20;;;9.20;99.90;;;;;;5055077;28;20210;-55
2022/04/06 06:34:48;;;;;;;26.48;21.65;;;9.20;99.90;;;;;;5055185;28;20217;-57
2022/04/06 06:37:15;;;;;;;29.77;21.83;;;9.30;99.90;;;;;;5055353;28;20203;-55
2022/04/06 06:39:43;;;;;;;29.55;23.00;;;9.30;99.90;;;;;;5055490;28;20195;-55
2022/04/06 06:42:10;;;;;;;31.52;21.70;;;9.40;99.90;;;;;;5055631;28;20200;-55
2022/04/06 06:44:39;;;;;;;32.13;22.10;;;9.50;99.90;;;;;;5054223;28;20206;-56
2022/04/06 06:47:06;;;;;;;24.95;21.15;;;9.60;99.90;;;;;;5054060;28;20667;-55
2022/04/06 06:49:33;;;;;;;32.55;20.92;;;9.60;99.90;;;;;;5055045;28;20224;-54
2022/04/06 06:52:00;;;;;;;27.50;20.40;;;9.70;99.90;;;;;;5054226;28;20207;-54
2022/04/06 06:54:27;;;;;;;23.45;19.23;;;9.70;99.90;;;;;;5053042;28;20870;-54
2022/04/06 06:56:54;;;;;;;26.30;19.65;;;9.80;99.90;;;;;;5053138;28;20223;-53
2022/04/06 06:59:21;;;;;;;30.17;20.90;;;9.90;99.90;;;;;;5052720;28;20679;-55
2022/04/06 07:01:50;;;;;;;24.67;19.37;;;10.00;99.90;;;;;;5052082;28;20207;-54
2022/04/06 07:04:17;;;;;;;25.60;19.00;;;10.10;99.90;;;;;;5053379;28;20824;-53
2022/04/06 07:06:44;;;;;;;24.63;18.80;;;10.10;99.90;;;;;;5052938;28;20227;-56
2022/04/06 07:09:11;;;;;;;27.75;19.50;;;10.10;99.90;;;;;;5052680;28;20226;-54
2022/04/06 07:11:38;;;;;;;22.37;18.47;;;10.20;99.90;;;;;;5052899;28;20230;-55
2022/04/06 07:14:05;;;;;;;23.90;18.40;;;10.30;99.90;;;;;;5051855;28;20453;-54
2022/04/06 07:16:32;;;;;;;21.00;17.90;;;10.30;99.90;;;;;;5052486;28;20474;-55
2022/04/06 07:19:01;;;;;;;22.80;17.80;;;10.30;99.90;;;;;;5052797;28;20487;-55
2022/04/06 07:21:28;;;;;;;24.33;18.60;;;10.40;99.90;;;;;;5052118;28;20203;-55
2022/04/06 07:23:55;;;;;;;21.67;16.33;;;10.40;99.90;;;;;;5052589;28;21000;-55
2022/04/06 07:26:22;;;;;;;20.47;18.27;;;10.50;99.90;;;;;;5052655;28;20522;-55
2022/04/06 07:28:49;;;;;;;20.33;16.23;;;10.50;99.90;;;;;;5051408;28;20490;-55
2022/04/06 07:31:17;;;;;;;24.00;17.33;;;10.60;99.90;;;;;;5052835;28;20472;-55
2022/04/06 07:33:44;;;;;;;19.00;16.17;;;10.60;99.90;;;;;;5052888;28;20449;-55
2022/04/06 07:36:13;;;;;;;19.37;14.80;;;10.60;99.90;;;;;;5052781;28;20828;-55
2022/04/06 07:38:40;;;;;;;16.90;15.20;;;10.70;99.90;;;;;;5051821;28;20457;-55
2022/04/06 07:41:07;;;;;;;19.83;14.80;;;10.70;99.90;;;;;;5052072;28;20451;-57
2022/04/06 07:43:34;;;;;;;18.47;15.20;;;10.70;99.90;;;;;;5052067;28;20441;-55
2022/04/06 07:46:01;;;;;;;15.77;13.57;;;10.80;99.90;;;;;;5051319;28;20470;-54
2022/04/06 07:48:30;;;;;;;17.53;13.40;;;10.80;99.90;;;;;;5052410;28;20958;-56
2022/04/06 07:50:57;;;;;;;15.60;13.57;;;10.90;99.90;;;;;;5052714;28;20453;-54
2022/04/06 07:53:26;;;;;;;13.67;12.27;;;11.00;99.90;;;;;;5051732;28;20454;-56
2022/04/06 07:55:53;;;;;;;15.00;12.10;;;11.10;99.90;;;;;;5050956;28;20466;-55
2022/04/06 07:58:20;;;;;;;15.63;12.10;;;11.10;99.90;;;;;;5052322;28;20449;-56
2022/04/06 08:00:47;;;;;;;14.33;12.90;;;11.10;99.90;;;;;;5052323;28;20456;-55
2022/04/06 08:03:14;;;;;;;15.23;12.30;;;11.10;99.90;;;;;;5052385;28;20461;-56
2022/04/06 08:05:41;;;;;;;13.03;11.73;;;11.10;99.90;;;;;;5051332;28;20475;-56
2022/04/06 08:08:09;;;;;;;12.00;10.73;;;11.20;99.90;;;;;;5051948;28;20789;-56
2022/04/06 08:10:37;;;;;;;11.77;10.40;;;11.30;99.90;;;;;;5052294;28;20493;-56
2022/04/06 08:13:04;;;;;;;11.87;10.60;;;11.20;99.90;;;;;;5050983;28;20444;-57
2022/04/06 08:15:32;;;;;;;15.00;9.70;;;11.20;99.90;;;;;;5051096;28;20975;-55
2022/04/06 08:17:59;;;;;;;11.13;10.23;;;11.20;99.70;;;;;;5052290;28;20447;-55
2022/04/06 08:20:26;;;;;;;15.20;11.33;;;11.10;99.40;;;;;;5052184;28;20945;-55
2022/04/06 08:22:53;;;;;;;11.30;10.20;;;11.10;99.20;;;;;;5051817;28;20515;-63
2022/04/06 08:25:20;;;;;;;13.03;11.63;;;11.10;99.10;;;;;;5051340;28;20482;-56
2022/04/06 08:27:49;;;;;;;11.20;10.20;;;11.00;99.10;;;;;;5052715;28;20577;-55
2022/04/06 08:30:19;;;;;;;11.47;9.40;;;11.10;98.80;;;;;;5051934;28;20474;-54
2022/04/06 08:32:47;;;;;;;11.67;10.57;;;11.20;98.30;;;;;;5051416;28;20500;-54
2022/04/06 08:35:14;;;;;;;9.63;8.63;;;11.20;97.40;;;;;;5051571;28;20467;-56
2022/04/06 08:37:41;;;;;;;13.00;10.57;;;11.20;96.90;;;;;;5053324;28;20445;-56
2022/04/06 08:40:09;;;;;;;10.43;9.20;;;11.20;96.60;;;;;;5052592;28;20469;-54
2022/04/06 08:42:37;;;;;;;11.17;9.13;;;11.20;96.60;;;;;;5052455;28;20455;-55
2022/04/06 08:45:07;;;;;;;12.40;8.90;;;11.20;96.40;;;;;;5051036;28;20473;-56
2022/04/06 08:47:36;;;;;;;12.70;9.17;;;11.20;96.40;;;;;;5052077;28;20445;-56
2022/04/06 08:50:06;;;;;;;8.70;7.80;;;11.20;96.00;;;;;;5052089;28;20989;-56
2022/04/06 08:52:34;;;;;;;10.03;9.13;;;11.10;95.70;;;;;;5051202;28;20464;-55
2022/04/06 08:55:02;;;;;;;10.47;7.90;;;11.10;95.80;;;;;;5053684;28;20472;-53
2022/04/06 08:57:29;;;;;;;12.90;9.80;;;11.10;95.80;;;;;;5055885;28;20485;-56
2022/04/06 08:59:56;;;;;;;8.60;7.73;;;11.10;95.60;;;;;;5055291;28;20449;-55
2022/04/06 09:02:25;;;;;;;12.77;8.57;;;11.10;95.60;;;;;;5055922;28;20442;-55
2022/04/06 09:04:53;;;;;;;8.90;8.00;;;11.10;95.20;;;;;;5055538;28;20476;-56
2022/04/06 09:07:21;;;;;;;12.20;7.60;;;11.20;94.80;;;;;;5056184;28;20501;-56
2022/04/06 09:09:52;;;;;;;13.83;8.20;;;11.30;94.40;;;;;;5055699;28;21056;-54
2022/04/06 09:12:21;;;;;;;9.87;7.73;;;11.40;94.10;;;;;;5055564;28;20451;-55
2022/04/06 09:14:48;;;;;;;7.33;6.63;;;11.50;93.70;;;;;;5054031;28;20457;-56
2022/04/06 09:17:21;;;;;;;8.60;7.53;;;11.50;93.40;;;;;;5055555;28;20494;-56
2022/04/06 09:19:50;;;;;;;6.73;6.23;;;11.50;92.70;;;;;;5055443;28;20466;-57
2022/04/06 09:22:18;;;;;;;12.27;7.20;;;11.50;92.90;;;;;;5054435;28;20523;-55
2022/04/06 09:24:55;;;;;;;8.67;6.73;;;11.50;92.80;;;;;;5054948;28;20565;-56
2022/04/06 09:27:23;;;;;;;11.33;7.00;;;11.40;92.50;;;;;;5054924;28;20910;-55
2022/04/06 09:29:50;;;;;;;8.33;6.80;;;11.30;92.70;;;;;;5054426;28;20486;-56
2022/04/06 09:32:17;;;;;;;10.90;6.83;;;11.30;92.90;;;;;;5054295;28;20450;-55
2022/04/06 09:37:28;;;;;;;11.00;6.90;;;11.30;93.40;;;;;;5066101;22;20498;-59
2022/04/06 09:39:57;;;;;;;7.23;6.20;;;11.30;93.40;;;;;;5033970;28;20463;-62
2022/04/06 09:42:25;;;;;;;9.30;6.27;;;11.20;93.50;;;;;;5035290;28;20457;-60
2022/04/06 09:47:42;;;;;;;10.70;6.60;;;11.20;93.90;;;;;;5014751;28;20431;-60
2022/04/06 09:50:15;;;;;;;10.80;6.43;;;11.20;94.10;;;;;;5015521;28;20509;-61
2022/04/06 09:52:45;;;;;;;9.33;6.47;;;11.20;94.20;;;;;;5016449;28;20823;-61
2022/04/06 09:55:13;;;;;;;10.60;6.40;;;11.20;93.90;;;;;;5015309;28;20452;-61
2022/04/06 09:57:42;;;;;;;7.97;7.17;;;11.10;94.00;;;;;;5015055;28;20457;-61
2022/04/06 10:00:12;;;;;;;8.73;7.67;;;11.00;94.20;;;;;;5014398;28;20501;-61
2022/04/06 10:02:42;;;;;;;7.00;6.10;;;11.00;94.30;;;;;;5015286;28;20832;-60
2022/04/06 10:05:13;;;;;;;8.57;6.27;;;11.00;94.40;;;;;;5015451;28;20440;-61
2022/04/06 10:07:41;;;;;;;6.83;6.13;;;10.90;94.50;;;;;;5015358;28;20429;-62
2022/04/06 10:10:11;;;;;;;8.53;6.40;;;10.90;94.70;;;;;;5015491;28;20995;-60
2022/04/06 10:12:39;;;;;;;10.00;7.00;;;11.00;94.90;;;;;;5016039;28;20458;-62
2022/04/06 10:15:07;;;;;;;8.17;6.63;;;11.10;94.80;;;;;;5013656;28;20642;-61
2022/04/06 10:17:35;;;;;;;9.10;6.77;;;11.20;94.30;;;;;;5014628;28;20451;-61
2022/04/06 10:20:13;;;;;;;7.50;5.90;;;11.40;93.20;;;;;;5014117;28;21032;-61
2022/04/06 10:22:54;;;;;;;8.00;5.10;;;11.50;92.30;;;;;;5014223;28;20438;-61
2022/04/06 10:25:31;;;;;;;8.50;5.10;;;11.60;91.20;;;;;;5014173;28;20480;-60
2022/04/06 10:28:02;;;;;;;13.93;5.90;;;11.60;91.00;;;;;;5013825;28;20434;-62
2022/04/06 10:30:29;;;;;;;7.47;5.83;;;11.50;90.60;;;;;;5014263;28;20471;-59
2022/04/06 10:32:58;;;;;;;5.87;5.27;;;11.40;90.30;;;;;;5013382;28;20456;-61
2022/04/06 10:35:27;;;;;;;7.30;6.57;;;11.30;90.60;;;;;;5014297;28;20524;-60
2022/04/06 10:38:16;;;;;;;10.60;8.13;;;11.30;90.90;;;;;;5012917;28;20923;-62
2022/04/06 10:40:58;;;;;;;7.03;6.33;;;11.30;91.10;;;;;;5014052;28;20441;-63
2022/04/06 10:43:50;;;;;;;9.57;6.63;;;11.20;91.20;;;;;;4995057;28;20481;-61
2022/04/06 10:46:31;;;;;;;6.97;6.23;;;11.20;91.50;;;;;;5005233;28;20476;-62
2022/04/06 10:48:59;;;;;;;8.00;5.30;;;11.10;91.50;;;;;;5014109;28;20434;-59
2022/04/06 10:51:33;;;;;;;6.90;6.27;;;11.10;92.00;;;;;;5013965;28;20488;-60
2022/04/06 10:54:21;;;;;;;7.13;6.43;;;11.00;92.30;;;;;;5012883;28;20446;-61
2022/04/06 10:56:55;;;;;;;6.83;6.03;;;11.00;92.70;;;;;;5013063;28;20479;-61
2022/04/06 10:59:23;;;;;;;7.73;6.27;;;11.10;93.00;;;;;;5015618;28;20522;-59
2022/04/06 11:02:10;;;;;;;9.17;6.37;;;11.10;93.00;;;;;;5015586;28;20535;-60
2022/04/06 11:04:40;;;;;;;7.33;6.00;;;11.10;92.80;;;;;;5015783;28;20468;-60
2022/04/06 11:07:08;;;;;;;9.60;6.90;;;11.10;92.80;;;;;;5015004;28;20500;-60
2022/04/06 11:12:23;;;;;;;8.23;6.37;;;11.30;92.90;;;;;;5015209;28;20953;-61
2022/04/06 11:15:11;;;;;;;7.97;5.90;;;11.60;92.10;;;;;;5012975;28;20458;-60
2022/04/06 11:17:41;;;;;;;8.13;5.90;;;11.70;91.50;;;;;;5013518;28;20830;-60
2022/04/06 11:20:10;;;;;;;8.33;7.17;;;11.80;91.10;;;;;;5015244;28;20444;-61
2022/04/06 11:22:39;;;;;;;9.77;8.07;;;11.90;91.00;;;;;;5014705;28;20458;-60
2022/04/06 11:25:09;;;;;;;8.00;6.40;;;11.90;90.80;;;;;;5014066;28;20458;-61
2022/04/06 11:27:39;;;;;;;8.85;7.80;;;11.90;90.80;;;;;;5013964;28;20454;-59
2022/04/06 11:30:09;;;;;;;9.70;7.40;;;11.90;90.50;;;;;;5013477;28;20454;-61
2022/04/06 11:32:38;;;;;;;7.93;7.13;;;11.80;90.40;;;;;;5013092;28;20213;-60
2022/04/06 11:35:07;;;;;;;10.10;8.50;;;11.80;90.70;;;;;;5015409;28;20478;-60
2022/04/06 11:37:40;;;;;;;9.40;8.00;;;11.90;90.80;;;;;;5015292;28;20434;-60
2022/04/06 11:40:09;;;;;;;8.37;7.23;;;12.10;90.50;;;;;;5013362;28;20436;-59
2022/04/06 11:42:38;;;;;;;7.10;6.40;;;12.30;89.70;;;;;;5014449;28;20457;-60
2022/04/06 11:45:06;;;;;;;5.20;4.70;;;12.50;88.40;;;;;;5014303;28;20827;-60
2022/04/06 11:47:35;;;;;;;6.70;4.80;;;12.70;87.10;;;;;;5014066;28;20458;-60
2022/04/06 11:50:05;;;;;;;6.07;3.97;;;12.60;86.10;;;;;;5012115;28;20517;-60
2022/04/06 11:52:34;;;;;;;4.60;3.90;;;12.60;85.90;;;;;;5015503;28;20450;-60
2022/04/06 11:55:02;;;;;;;4.57;3.50;;;12.40;86.20;;;;;;5013117;28;20446;-61
2022/04/06 11:57:36;;;;;;;4.00;3.60;;;12.40;86.70;;;;;;5012261;28;20905;-60
2022/04/06 12:00:06;;;;;;;4.60;3.80;;;12.30;87.00;;;;;;5013668;28;20446;-62
2022/04/06 12:02:52;;;;;;;5.80;4.00;;;12.30;87.40;;;;;;5013474;28;20431;-59
2022/04/06 12:05:21;;;;;;;5.63;4.67;;;12.20;87.40;;;;;;5011780;28;20995;-60
2022/04/06 12:07:49;;;;;;;4.43;3.70;;;12.30;87.80;;;;;;5012827;28;20452;-59
2022/04/06 12:10:16;;;;;;;6.47;4.40;;;12.30;87.80;;;;;;5012208;28;20589;-61
2022/04/06 12:12:43;;;;;;;5.37;4.30;;;12.30;87.20;;;;;;5012588;28;20939;-59
2022/04/06 12:15:12;;;;;;;5.93;3.90;;;12.40;87.20;;;;;;5012622;28;20447;-61
2022/04/06 12:17:40;;;;;;;5.10;3.97;;;12.50;86.40;;;;;;5011324;28;20460;-60
2022/04/06 12:20:24;;;;;;;5.30;4.23;;;12.60;85.40;;;;;;5012672;28;20582;-61
2022/04/06 12:23:02;;;;;;;4.83;4.00;;;12.60;84.70;;;;;;5014226;28;20449;-60
2022/04/06 12:25:30;;;;;;;4.67;4.20;;;12.60;83.00;;;;;;5013792;28;20526;-61
2022/04/06 12:28:11;;;;;;;4.63;4.00;;;12.60;82.90;;;;;;5014089;28;20821;-60
2022/04/06 12:30:59;;;;;;;5.53;3.67;;;12.50;83.10;;;;;;5016546;28;20480;-61
2022/04/06 12:33:44;;;;;;;4.90;3.63;;;12.50;83.70;;;;;;5017895;28;20440;-61
2022/04/06 12:36:17;;;;;;;4.60;3.50;;;12.40;84.00;;;;;;5018586;28;20981;-61
2022/04/06 12:38:57;;;;;;;6.07;3.83;;;12.40;84.10;;;;;;5019908;28;20437;-62
2022/04/06 12:41:25;;;;;;;3.90;3.50;;;12.20;84.20;;;;;;5018350;28;20422;-61
2022/04/06 12:43:52;;;;;;;5.20;4.27;;;12.10;85.20;;;;;;5017849;28;20541;-61
2022/04/06 12:46:41;;;;;;;4.10;3.40;;;12.10;86.00;;;;;;5017957;28;20485;-60
2022/04/06 12:49:27;;;;;;;5.27;4.23;;;12.10;86.70;;;;;;5019379;28;20545;-60
2022/04/06 12:52:08;;;;;;;5.50;3.80;;;12.20;87.10;;;;;;5018689;28;20485;-60
2022/04/06 12:54:37;;;;;;;4.13;3.70;;;12.20;86.80;;;;;;5019094;28;20435;-60
2022/04/06 12:57:13;;;;;;;5.57;3.70;;;12.30;86.70;;;;;;5018778;28;21010;-60
2022/04/06 12:59:43;;;;;;;5.20;3.60;;;12.30;86.50;;;;;;5019294;28;20433;-60